createdAt,value
2019-04-27T00:01:15.193Z,59.70
2019-04-27T00:03:44.826Z,59.80
2019-04-27T00:06:13.505Z,59.80
2019-04-27T00:08:45.135Z,59.80
2019-04-27T00:11:19.418Z,59.80
2019-04-27T00:13:46.097Z,59.80
2019-04-27T00:16:14.269Z,60.60
2019-04-27T00:18:45.156Z,60.00
2019-04-27T00:21:13.505Z,60.10
2019-04-27T00:23:42.975Z,60.00
2019-04-27T00:26:09.419Z,60.10
2019-04-27T00:28:36.030Z,60.20
2019-04-27T00:31:03.300Z,60.20
2019-04-27T00:33:29.747Z,60.30
2019-04-27T00:35:57.955Z,60.40
2019-04-27T00:38:35.315Z,60.50
2019-04-27T00:41:03.687Z,60.50
2019-04-27T00:43:29.972Z,60.60
2019-04-27T00:45:56.448Z,60.60
2019-04-27T00:48:23.420Z,60.80
2019-04-27T00:50:49.931Z,60.80
2019-04-27T00:53:16.160Z,60.90
2019-04-27T00:55:47.327Z,61.00
2019-04-27T00:58:15.581Z,61.20
2019-04-27T01:01:01.979Z,61.30
2019-04-27T01:03:30.167Z,61.20
2019-04-27T01:05:56.691Z,61.20
2019-04-27T01:08:23.044Z,61.30
2019-04-27T01:10:49.348Z,61.50
2019-04-27T01:13:15.887Z,61.50
2019-04-27T01:15:43.051Z,61.50
2019-04-27T01:18:14.971Z,61.70
2019-04-27T01:20:38.807Z,61.80
2019-04-27T01:23:06.652Z,61.90
2019-04-27T01:25:38.815Z,62.00
2019-04-27T01:28:10.250Z,62.30
2019-04-27T01:30:44.114Z,62.20
2019-04-27T01:33:10.489Z,62.30
2019-04-27T01:35:36.732Z,62.30
2019-04-27T01:38:03.252Z,62.30
2019-04-27T01:40:29.686Z,62.50
2019-04-27T01:42:58.808Z,63.50
2019-04-27T01:45:24.058Z,62.60
2019-04-27T01:47:50.343Z,62.60
2019-04-27T01:50:18.734Z,62.60
2019-04-27T01:52:45.154Z,62.60
2019-04-27T01:55:11.768Z,62.70
2019-04-27T01:57:38.673Z,62.90
2019-04-27T02:00:17.367Z,63.10
2019-04-27T02:02:46.141Z,62.90
2019-04-27T02:05:19.048Z,63.00
2019-04-27T02:07:45.446Z,63.10
2019-04-27T02:10:13.711Z,63.10
2019-04-27T02:12:40.248Z,63.20
2019-04-27T02:15:06.835Z,63.20
2019-04-27T02:17:33.221Z,63.20
2019-04-27T02:19:59.576Z,63.20
2019-04-27T02:22:26.077Z,63.20
2019-04-27T02:24:54.183Z,63.30
2019-04-27T02:27:22.308Z,63.20
2019-04-27T02:30:11.526Z,63.50
2019-04-27T02:32:45.191Z,63.70
2019-04-27T02:35:12.210Z,63.60
2019-04-27T02:37:40.328Z,63.70
2019-04-27T02:40:20.499Z,63.80
2019-04-27T02:42:50.372Z,64.00
2019-04-27T02:45:16.927Z,64.00
2019-04-27T02:47:43.287Z,64.10
2019-04-27T02:50:10.735Z,64.40
2019-04-27T02:52:40.435Z,64.60
2019-04-27T02:55:09.260Z,64.80
2019-04-27T02:57:35.426Z,65.00
2019-04-27T03:00:03.272Z,65.10
2019-04-27T03:02:31.462Z,65.20
2019-04-27T03:05:00.254Z,65.20
2019-04-27T03:07:26.238Z,65.30
2019-04-27T03:09:52.607Z,65.20
2019-04-27T03:12:20.727Z,65.10
2019-04-27T03:15:01.253Z,65.10
2019-04-27T03:17:31.053Z,65.30
2019-04-27T03:19:59.841Z,65.30
2019-04-27T03:22:30.987Z,65.40
2019-04-27T03:25:14.928Z,65.40
2019-04-27T03:27:50.432Z,66.30
2019-04-27T03:30:21.832Z,65.60
2019-04-27T03:32:45.389Z,65.60
2019-04-27T03:35:13.261Z,65.80
2019-04-27T03:37:40.599Z,65.80
2019-04-27T03:40:10.087Z,65.70
2019-04-27T03:42:40.078Z,65.80
2019-04-27T03:45:06.775Z,65.90
2019-04-27T03:47:33.410Z,66.00
2019-04-27T03:50:00.184Z,66.00
2019-04-27T03:52:45.446Z,66.00
2019-04-27T03:55:19.499Z,66.10
2019-04-27T03:58:02.247Z,66.00
2019-04-27T04:00:30.467Z,66.10
2019-04-27T04:02:57.163Z,66.30
2019-04-27T04:05:23.610Z,66.30
2019-04-27T04:07:50.523Z,66.50
2019-04-27T04:10:19.812Z,66.70
2019-04-27T04:12:56.081Z,66.70
2019-04-27T04:15:23.867Z,66.70
2019-04-27T04:17:50.045Z,66.70
2019-04-27T04:20:16.426Z,66.80
2019-04-27T04:22:42.663Z,67.10
2019-04-27T04:25:10.749Z,67.10
2019-04-27T04:27:40.134Z,67.20
2019-04-27T04:30:09.739Z,67.20
2019-04-27T04:32:35.352Z,67.20
2019-04-27T04:35:21.181Z,67.20
2019-04-27T04:37:49.696Z,67.60
2019-04-27T04:40:19.717Z,67.40
2019-04-27T04:42:49.914Z,67.50
2019-04-27T04:45:20.156Z,67.70
2019-04-27T04:47:51.016Z,67.60
2019-04-27T04:50:17.331Z,67.60
2019-04-27T04:52:43.673Z,67.70
2019-04-27T04:55:10.234Z,67.90
2019-04-27T04:57:37.049Z,67.80
2019-04-27T05:00:06.155Z,67.90
2019-04-27T05:02:32.579Z,67.90
2019-04-27T05:04:59.234Z,67.90
2019-04-27T05:07:25.905Z,67.90
2019-04-27T05:09:52.287Z,67.90
2019-04-27T05:12:19.045Z,68.00
2019-04-27T05:14:45.788Z,68.20
2019-04-27T05:17:12.101Z,68.30
2019-04-27T05:19:38.956Z,68.40
2019-04-27T05:22:05.572Z,68.50
2019-04-27T05:24:31.806Z,68.50
2019-04-27T05:26:59.085Z,68.60
2019-04-27T05:29:25.897Z,68.80
2019-04-27T05:31:52.097Z,68.90
2019-04-27T05:34:19.740Z,69.10
2019-04-27T05:36:49.016Z,69.40
2019-04-27T05:39:18.038Z,69.30
2019-04-27T05:41:42.367Z,69.40
2019-04-27T05:44:12.764Z,69.70
2019-04-27T05:46:55.686Z,69.70
2019-04-27T05:49:26.734Z,69.70
2019-04-27T05:51:52.980Z,69.90
2019-04-27T05:54:19.414Z,70.20
2019-04-27T05:56:45.739Z,70.30
2019-04-27T05:59:14.583Z,70.30
2019-04-27T06:01:40.347Z,70.40
2019-04-27T06:04:06.678Z,70.40
2019-04-27T06:06:33.156Z,70.50
2019-04-27T06:08:59.562Z,70.70
2019-04-27T06:11:25.874Z,70.70
2019-04-27T06:13:52.202Z,70.60
2019-04-27T06:16:19.454Z,70.70
2019-04-27T06:18:45.989Z,70.70
2019-04-27T06:21:12.750Z,70.80
2019-04-27T06:23:39.198Z,70.80
2019-04-27T06:26:05.595Z,70.90
2019-04-27T06:28:31.925Z,71.10
2019-04-27T06:30:59.426Z,71.10
2019-04-27T06:33:31.945Z,71.40
2019-04-27T06:35:54.313Z,71.40
2019-04-27T06:38:20.627Z,71.40
2019-04-27T06:40:46.896Z,71.50
2019-04-27T06:43:13.289Z,71.40
2019-04-27T06:45:39.554Z,71.50
2019-04-27T06:48:05.761Z,71.60
2019-04-27T06:50:32.059Z,71.70
2019-04-27T06:52:59.101Z,72.10
2019-04-27T06:55:39.199Z,72.10
2019-04-27T06:58:05.664Z,71.90
2019-04-27T07:00:32.792Z,72.30
2019-04-27T07:02:59.722Z,72.40
2019-04-27T07:05:26.235Z,72.40
2019-04-27T07:07:52.890Z,72.50
2019-04-27T07:10:19.518Z,72.60
2019-04-27T07:12:46.164Z,72.70
2019-04-27T07:15:15.390Z,72.70
2019-04-27T07:17:40.649Z,72.70
2019-04-27T07:20:06.897Z,72.70
2019-04-27T07:22:33.311Z,72.70
2019-04-27T07:24:59.606Z,72.70
2019-04-27T07:27:25.973Z,72.90
2019-04-27T07:29:53.658Z,73.00
2019-04-27T07:32:20.271Z,73.20
2019-04-27T07:34:46.602Z,73.30
2019-04-27T07:37:12.926Z,73.30
2019-04-27T07:39:39.268Z,73.30
2019-04-27T07:42:05.593Z,73.40
2019-04-27T07:44:50.034Z,73.20
2019-04-27T07:47:22.429Z,73.40
2019-04-27T07:49:49.707Z,73.50
2019-04-27T07:52:16.312Z,73.80
2019-04-27T07:54:42.744Z,73.80
2019-04-27T07:57:09.862Z,73.80
2019-04-27T07:59:36.332Z,73.80
2019-04-27T08:02:03.167Z,73.90
2019-04-27T08:04:29.500Z,74.40
2019-04-27T08:06:55.829Z,74.40
2019-04-27T08:09:22.156Z,74.40
2019-04-27T08:11:48.852Z,74.90
2019-04-27T08:14:15.237Z,75.10
2019-04-27T08:16:41.563Z,74.60
2019-04-27T08:19:09.759Z,74.20
2019-04-27T08:21:43.617Z,73.80
2019-04-27T08:24:04.342Z,72.90
2019-04-27T08:26:32.546Z,72.10
2019-04-27T08:29:16.166Z,71.50
2019-04-27T08:31:56.513Z,71.90
2019-04-27T08:34:32.245Z,72.20
2019-04-27T08:37:00.809Z,72.40
2019-04-27T08:39:27.704Z,72.60
2019-04-27T08:41:54.633Z,73.20
2019-04-27T08:44:20.961Z,73.10
2019-04-27T08:46:47.519Z,73.10
2019-04-27T08:52:42.076Z,72.90
2019-04-27T08:55:09.554Z,72.80
2019-04-27T08:57:36.104Z,73.30
2019-04-27T09:00:06.071Z,73.40
2019-04-27T09:02:42.061Z,73.40
2019-04-27T09:05:00.476Z,73.60
2019-04-27T09:07:44.057Z,73.40
2019-04-27T09:10:12.710Z,73.40
2019-04-27T09:12:41.561Z,72.60
2019-04-27T09:15:12.885Z,72.70
2019-04-27T09:17:41.030Z,72.40
2019-04-27T09:20:09.638Z,71.90
2019-04-27T09:22:35.887Z,71.80
2019-04-27T09:25:03.314Z,70.90
2019-04-27T09:27:29.651Z,70.70
2019-04-27T09:29:55.974Z,70.50
2019-04-27T09:32:22.327Z,70.80
2019-04-27T09:34:48.743Z,70.50
2019-04-27T09:37:16.006Z,69.60
2019-04-27T09:39:42.422Z,69.70
2019-04-27T09:42:08.666Z,68.70
2019-04-27T09:44:36.902Z,68.10
2019-04-27T09:47:03.365Z,68.30
2019-04-27T09:49:29.793Z,68.60
2019-04-27T09:51:56.227Z,68.60
2019-04-27T09:54:23.734Z,69.10
2019-04-27T09:56:50.438Z,68.60
2019-04-27T09:59:16.853Z,68.80
2019-04-27T10:01:43.289Z,68.00
2019-04-27T10:04:09.825Z,67.90
2019-04-27T10:06:36.299Z,67.90
2019-04-27T10:09:06.575Z,68.30
2019-04-27T10:11:32.908Z,68.10
2019-04-27T10:14:08.349Z,66.80
2019-04-27T10:16:36.570Z,67.80
2019-04-27T10:19:03.171Z,67.10
2019-04-27T10:21:29.596Z,67.10
2019-04-27T10:23:56.790Z,67.40
2019-04-27T10:26:23.280Z,67.50
2019-04-27T10:28:49.509Z,66.00
2019-04-27T10:31:16.272Z,64.30
2019-04-27T10:33:42.603Z,64.30
2019-04-27T10:36:09.114Z,64.60
2019-04-27T10:38:36.017Z,64.70
2019-04-27T10:41:02.408Z,64.60
2019-04-27T10:43:28.696Z,62.30
2019-04-27T10:45:56.534Z,63.00
2019-04-27T10:48:23.027Z,62.60
2019-04-27T10:50:49.759Z,63.30
2019-04-27T10:53:16.885Z,62.50
2019-04-27T10:55:43.440Z,62.30
2019-04-27T10:58:09.878Z,63.00
2019-04-27T11:00:47.574Z,64.50
2019-04-27T11:03:16.654Z,63.60
2019-04-27T11:05:46.023Z,64.00
2019-04-27T11:08:12.715Z,64.00
2019-04-27T11:10:39.146Z,64.20
2019-04-27T11:13:06.281Z,63.60
2019-04-27T11:15:33.036Z,62.40
2019-04-27T11:17:59.464Z,59.80
2019-04-27T11:20:27.734Z,59.50
2019-04-27T11:23:00.767Z,59.80
2019-04-27T11:25:22.147Z,58.30
2019-04-27T11:27:48.471Z,59.70
2019-04-27T11:30:15.773Z,58.30
2019-04-27T11:32:42.480Z,58.60
2019-04-27T11:35:15.685Z,57.50
2019-04-27T11:37:42.088Z,57.00
2019-04-27T11:40:09.955Z,57.40
2019-04-27T11:42:36.393Z,55.80
2019-04-27T11:45:06.600Z,56.20
2019-04-27T11:47:33.070Z,55.30
2019-04-27T11:49:59.395Z,56.80
2019-04-27T11:52:26.044Z,56.70
2019-04-27T11:54:52.465Z,55.50
2019-04-27T11:57:18.795Z,55.80
2019-04-27T11:59:45.047Z,55.50
2019-04-27T12:02:11.343Z,55.00
2019-04-27T12:04:37.908Z,55.10
2019-04-27T12:07:04.320Z,55.60
2019-04-27T12:09:30.654Z,56.20
2019-04-27T12:12:06.787Z,56.00
2019-04-27T12:14:25.258Z,56.70
2019-04-27T12:16:51.588Z,56.50
2019-04-27T12:19:17.918Z,57.30
2019-04-27T12:21:44.165Z,56.80
2019-04-27T12:24:10.503Z,56.60
2019-04-27T12:26:38.753Z,56.30
2019-04-27T12:29:07.213Z,55.80
2019-04-27T12:31:38.116Z,53.20
2019-04-27T12:34:06.133Z,52.50
2019-04-27T12:36:32.520Z,51.90
2019-04-27T12:38:58.903Z,51.40
2019-04-27T12:41:25.553Z,51.80
2019-04-27T12:43:52.067Z,51.40
2019-04-27T12:46:18.508Z,49.60
2019-04-27T12:48:45.988Z,50.80
2019-04-27T12:51:12.398Z,52.10
2019-04-27T12:53:50.081Z,52.60
2019-04-27T12:56:22.473Z,52.80
2019-04-27T12:58:50.674Z,53.30
2019-04-27T13:01:22.091Z,54.10
2019-04-27T13:03:48.423Z,54.60
2019-04-27T13:06:14.752Z,54.80
2019-04-27T13:08:41.083Z,55.40
2019-04-27T13:11:07.414Z,56.00
2019-04-27T13:13:33.743Z,56.10
2019-04-27T13:16:00.018Z,55.50
2019-04-27T13:18:26.406Z,56.20
2019-04-27T13:20:52.700Z,57.30
2019-04-27T13:23:19.021Z,57.40
2019-04-27T13:25:46.090Z,57.70
2019-04-27T13:28:12.854Z,58.40
2019-04-27T13:30:39.184Z,59.20
2019-04-27T13:33:05.515Z,60.30
2019-04-27T13:35:33.992Z,61.40
2019-04-27T13:38:00.530Z,63.30
2019-04-27T13:40:26.860Z,65.20
2019-04-27T13:43:11.478Z,67.40
2019-04-27T13:45:57.856Z,68.80
2019-04-27T13:48:29.165Z,70.60
2019-04-27T13:50:57.673Z,72.80
2019-04-27T13:53:24.079Z,74.60
2019-04-27T13:55:50.410Z,75.30
2019-04-27T13:58:16.741Z,75.50
2019-04-27T14:00:43.070Z,75.50
2019-04-27T14:03:09.503Z,75.80
2019-04-27T14:05:35.833Z,76.10
2019-04-27T14:08:02.164Z,76.80
2019-04-27T14:10:28.686Z,77.10
2019-04-27T14:12:55.056Z,76.50
2019-04-27T14:15:21.532Z,76.00
2019-04-27T14:17:49.842Z,75.70
2019-04-27T14:20:17.984Z,76.10
2019-04-27T14:22:44.548Z,75.90
2019-04-27T14:25:11.288Z,76.10
2019-04-27T14:27:40.676Z,75.90
2019-04-27T14:30:10.705Z,75.30
2019-04-27T14:32:38.722Z,74.60
2019-04-27T14:35:05.419Z,75.00
2019-04-27T14:37:31.849Z,73.40
2019-04-27T14:39:59.713Z,72.10
2019-04-27T14:42:26.253Z,71.50
2019-04-27T14:44:52.515Z,69.30
2019-04-27T14:47:18.985Z,69.00
2019-04-27T14:49:45.326Z,68.30
2019-04-27T14:52:11.753Z,68.30
2019-04-27T14:54:46.039Z,68.70
2019-04-27T14:57:06.187Z,68.60
2019-04-27T14:59:32.509Z,70.20
2019-04-27T15:02:00.103Z,70.80
2019-04-27T15:04:27.093Z,71.80
2019-04-27T15:06:55.501Z,71.40
2019-04-27T15:09:21.721Z,71.40
2019-04-27T15:11:49.342Z,70.80
2019-04-27T15:14:16.302Z,71.00
2019-04-27T15:16:47.087Z,70.80
2019-04-27T15:19:21.559Z,71.60
2019-04-27T15:21:57.775Z,71.30
2019-04-27T15:24:16.088Z,71.60
2019-04-27T15:26:42.395Z,68.90
2019-04-27T15:29:12.074Z,70.10
2019-04-27T15:31:40.851Z,68.80
2019-04-27T15:34:12.297Z,69.50
2019-04-27T15:36:46.289Z,69.40
2019-04-27T15:39:26.980Z,68.80
2019-04-27T15:41:55.123Z,68.60
2019-04-27T15:44:21.740Z,68.10
2019-04-27T15:46:48.187Z,67.00
2019-04-27T15:49:14.550Z,66.40
2019-04-27T15:51:40.956Z,66.20
2019-04-27T15:54:07.344Z,65.00
2019-04-27T15:56:35.290Z,64.80
2019-04-27T15:59:01.721Z,65.20
2019-04-27T16:01:29.702Z,65.00
2019-04-27T16:03:58.246Z,64.80
2019-04-27T16:06:24.744Z,64.00
2019-04-27T16:08:51.292Z,64.00
2019-04-27T16:11:19.762Z,63.10
2019-04-27T16:13:46.010Z,63.70
2019-04-27T16:16:12.443Z,61.80
2019-04-27T16:18:38.949Z,61.40
2019-04-27T16:21:07.055Z,61.60
2019-04-27T16:23:37.687Z,60.80
2019-04-27T16:26:04.985Z,59.80
2019-04-27T16:28:30.252Z,58.20
2019-04-27T16:30:58.162Z,57.10
2019-04-27T16:33:24.863Z,56.40
2019-04-27T16:35:53.098Z,57.40
2019-04-27T16:38:34.819Z,57.00
2019-04-27T16:41:03.334Z,56.80
2019-04-27T16:43:32.693Z,58.00
2019-04-27T16:46:04.098Z,57.60
2019-04-27T16:48:28.095Z,58.80
2019-04-27T16:50:55.147Z,58.80
2019-04-27T16:53:21.807Z,58.90
2019-04-27T16:55:59.478Z,59.20
2019-04-27T16:58:20.219Z,59.00
2019-04-27T17:00:44.685Z,59.10
2019-04-27T17:03:11.125Z,58.90
2019-04-27T17:05:38.035Z,59.00
2019-04-27T17:08:04.603Z,59.40
2019-04-27T17:10:31.239Z,59.30
2019-04-27T17:12:59.102Z,59.30
2019-04-27T17:15:46.134Z,59.70
2019-04-27T17:18:32.885Z,59.50
2019-04-27T17:21:01.027Z,59.60
2019-04-27T17:23:29.549Z,59.20
2019-04-27T17:26:06.032Z,59.70
2019-04-27T17:28:48.501Z,59.60
2019-04-27T17:31:19.737Z,59.80
2019-04-27T17:33:48.839Z,59.60
2019-04-27T17:36:16.245Z,59.40
2019-04-27T17:38:46.657Z,58.70
2019-04-27T17:41:12.613Z,58.70
2019-04-27T17:43:41.500Z,58.20
2019-04-27T17:46:07.491Z,57.80
2019-04-27T17:48:35.039Z,58.00
2019-04-27T17:51:03.493Z,57.80
2019-04-27T17:53:32.991Z,57.70
2019-04-27T17:56:02.911Z,57.10
2019-04-27T17:58:25.685Z,57.60
2019-04-27T18:00:51.994Z,57.30
2019-04-27T18:03:21.076Z,57.70
2019-04-27T18:05:49.192Z,58.40
2019-04-27T18:08:18.772Z,58.80
2019-04-27T18:10:42.700Z,59.20
2019-04-27T18:13:09.134Z,59.60
2019-04-27T18:15:35.580Z,60.10
2019-04-27T18:18:04.251Z,60.50
2019-04-27T18:20:30.485Z,59.80
2019-04-27T18:23:15.009Z,60.20
2019-04-27T18:25:43.529Z,60.20
2019-04-27T18:28:15.170Z,59.90
2019-04-27T18:30:52.910Z,60.40
2019-04-27T18:33:19.250Z,60.00
2019-04-27T18:35:45.633Z,59.70
2019-04-27T18:38:11.861Z,60.20
2019-04-27T18:40:39.964Z,60.00
2019-04-27T18:43:09.616Z,60.30
2019-04-27T18:45:38.056Z,60.00
2019-04-27T18:48:06.567Z,60.20
2019-04-27T18:50:38.412Z,60.30
2019-04-27T18:53:09.708Z,60.70
2019-04-27T18:55:35.929Z,60.50
2019-04-27T18:58:02.267Z,60.40
2019-04-27T19:00:29.507Z,60.40
2019-04-27T19:02:55.960Z,60.90
2019-04-27T19:05:22.261Z,61.00
2019-04-27T19:07:48.601Z,60.40
2019-04-27T19:10:14.853Z,60.80
2019-04-27T19:12:41.269Z,61.10
2019-04-27T19:15:08.356Z,60.90
2019-04-27T19:17:34.760Z,61.20
2019-04-27T19:20:01.084Z,60.80
2019-04-27T19:22:27.999Z,61.20
2019-04-27T19:24:55.485Z,61.00
2019-04-27T19:27:42.543Z,61.20
2019-04-27T19:30:19.531Z,60.90
2019-04-27T19:32:45.915Z,60.70
2019-04-27T19:35:12.350Z,60.90
2019-04-27T19:37:39.795Z,60.30
2019-04-27T19:40:08.510Z,61.00
2019-04-27T19:42:35.307Z,61.10
2019-04-27T19:45:03.608Z,61.40
2019-04-27T19:47:30.031Z,61.10
2019-04-27T19:49:56.582Z,61.70
2019-04-27T19:52:22.909Z,62.00
2019-04-27T19:54:49.454Z,61.80
2019-04-27T19:57:29.343Z,61.30
2019-04-27T19:59:49.081Z,61.40
2019-04-27T20:02:18.473Z,62.20
2019-04-27T20:04:47.375Z,61.90
2019-04-27T20:07:13.690Z,62.30
2019-04-27T20:09:49.690Z,62.50
2019-04-27T20:12:16.407Z,62.60
2019-04-27T20:14:54.725Z,63.00
2019-04-27T20:17:22.346Z,63.20
2019-04-27T20:19:48.898Z,63.20
2019-04-27T20:22:15.224Z,63.40
2019-04-27T20:24:41.557Z,63.40
2019-04-27T20:27:08.107Z,63.60
2019-04-27T20:29:34.415Z,63.70
2019-04-27T20:32:01.187Z,63.80
2019-04-27T20:34:27.692Z,64.00
2019-04-27T20:36:54.025Z,63.90
2019-04-27T20:39:20.353Z,63.30
2019-04-27T20:41:46.634Z,62.90
2019-04-27T20:44:13.014Z,63.40
2019-04-27T20:46:41.215Z,63.60
2019-04-27T20:49:20.337Z,63.80
2019-04-27T20:52:07.539Z,63.50
2019-04-27T20:54:33.778Z,63.60
2019-04-27T20:57:01.531Z,63.40
2019-04-27T20:59:28.067Z,63.60
2019-04-27T21:01:54.406Z,63.20
2019-04-27T21:04:25.732Z,63.80
2019-04-27T21:06:53.925Z,63.20
2019-04-27T21:09:21.345Z,63.50
2019-04-27T21:11:48.359Z,63.80
2019-04-27T21:14:14.877Z,63.90
2019-04-27T21:16:41.798Z,64.00
2019-04-27T21:19:08.027Z,63.70
2019-04-27T21:21:34.329Z,63.70
2019-04-27T21:24:00.688Z,63.50
2019-04-27T21:26:27.017Z,63.30
2019-04-27T21:28:53.284Z,63.40
2019-04-27T21:31:21.278Z,63.80
2019-04-27T21:33:47.711Z,64.00
2019-04-27T21:36:14.182Z,64.20
2019-04-27T21:38:41.157Z,63.80
2019-04-27T21:41:08.685Z,64.20
2019-04-27T21:43:35.335Z,64.40
2019-04-27T21:46:01.672Z,64.40
2019-04-27T21:48:27.984Z,64.60
2019-04-27T21:50:54.326Z,64.70
2019-04-27T21:53:34.571Z,64.90
2019-04-27T21:56:02.759Z,64.90
2019-04-27T21:58:33.244Z,64.70
2019-04-27T22:01:12.913Z,64.80
2019-04-27T22:03:38.624Z,65.10
2019-04-27T22:06:05.115Z,65.20
2019-04-27T22:08:31.832Z,65.20
2019-04-27T22:10:58.668Z,65.30
2019-04-27T22:13:25.599Z,65.50
2019-04-27T22:15:52.023Z,65.70
2019-04-27T22:18:18.358Z,65.50
2019-04-27T22:20:44.788Z,65.80
2019-04-27T22:23:31.802Z,65.80
2019-04-27T22:25:58.156Z,65.60
2019-04-27T22:28:24.670Z,65.80
2019-04-27T22:30:50.999Z,65.90
2019-04-27T22:33:17.329Z,66.10
2019-04-27T22:35:43.660Z,66.10
2019-04-27T22:38:11.841Z,66.00
2019-04-27T22:40:52.342Z,66.20
2019-04-27T22:43:20.787Z,66.30
2019-04-27T22:45:47.210Z,66.30
2019-04-27T22:48:13.447Z,66.40
2019-04-27T22:50:41.311Z,66.40
2019-04-27T22:53:08.484Z,66.50
2019-04-27T22:55:36.936Z,66.60
2019-04-27T22:58:14.117Z,66.40
2019-04-27T23:00:48.186Z,66.50
2019-04-27T23:03:16.767Z,66.50
2019-04-27T23:05:43.221Z,66.50
2019-04-27T23:08:09.577Z,66.40
2019-04-27T23:10:35.813Z,66.60
2019-04-27T23:13:02.135Z,66.60
2019-04-27T23:15:30.643Z,66.60
2019-04-27T23:17:58.695Z,66.90
2019-04-27T23:20:24.877Z,66.90
2019-04-27T23:22:53.100Z,66.70
2019-04-27T23:25:19.459Z,66.90
2019-04-27T23:27:45.856Z,67.50
2019-04-27T23:30:13.103Z,66.80
2019-04-27T23:32:51.441Z,66.80
2019-04-27T23:35:18.703Z,66.90
2019-04-27T23:37:45.099Z,66.70
2019-04-27T23:40:11.604Z,66.50
2019-04-27T23:42:37.965Z,66.60
2019-04-27T23:45:07.470Z,66.10
2019-04-27T23:47:33.800Z,66.10
2019-04-27T23:50:00.819Z,66.00
2019-04-27T23:52:45.988Z,65.90
2019-04-27T23:55:12.317Z,65.70
2019-04-27T23:57:38.568Z,66.00
